createdAt,value
2022-12-13T00:01:30.708Z,33.00
2022-12-13T00:04:00.738Z,31.03
2022-12-13T00:06:27.612Z,32.73
2022-12-13T00:08:54.461Z,31.30
2022-12-13T00:11:20.899Z,25.20
2022-12-13T00:13:48.004Z,32.70
2022-12-13T00:16:15.711Z,31.67
2022-12-13T00:18:42.173Z,33.43
2022-12-13T00:21:09.902Z,33.10
2022-12-13T00:23:36.536Z,31.37
2022-12-13T00:26:05.761Z,32.07
2022-12-13T00:28:32.432Z,33.00
2022-12-13T00:31:19.707Z,33.43
2022-12-13T00:33:46.303Z,35.70
2022-12-13T00:36:13.058Z,33.40
2022-12-13T00:38:39.646Z,33.20
2022-12-13T00:41:13.200Z,32.63
2022-12-13T00:43:39.787Z,33.60
2022-12-13T00:46:07.294Z,32.87
2022-12-13T00:48:33.719Z,31.90
2022-12-13T00:51:00.496Z,32.63
2022-12-13T00:53:26.870Z,26.07
2022-12-13T00:55:53.325Z,33.10
2022-12-13T00:58:19.688Z,24.63
2022-12-13T01:00:47.183Z,33.50
2022-12-13T01:03:25.477Z,35.03
2022-12-13T01:08:39.580Z,24.20
2022-12-13T01:11:06.521Z,21.33
2022-12-13T01:13:33.044Z,33.57
2022-12-13T01:16:02.097Z,35.70
2022-12-13T01:18:28.858Z,25.80
2022-12-13T01:20:59.386Z,23.10
2022-12-13T01:23:26.393Z,35.87
2022-12-13T01:25:52.851Z,37.00
2022-12-13T01:28:19.332Z,24.90
2022-12-13T01:30:53.382Z,37.50
2022-12-13T01:33:19.825Z,38.27
2022-12-13T01:35:46.290Z,24.47
2022-12-13T01:38:16.136Z,22.70
2022-12-13T01:40:58.784Z,36.80
2022-12-13T01:43:46.830Z,36.60
2022-12-13T01:46:14.030Z,23.60
2022-12-13T01:48:59.312Z,36.07
2022-12-13T01:51:47.685Z,23.83
2022-12-13T01:54:20.985Z,25.30
2022-12-13T01:56:51.071Z,25.87
2022-12-13T01:59:18.271Z,34.03
2022-12-13T02:01:47.674Z,36.57
2022-12-13T02:04:14.854Z,37.17
2022-12-13T02:06:43.548Z,39.57
2022-12-13T02:09:10.513Z,29.50
2022-12-13T02:11:39.159Z,37.17
2022-12-13T02:14:05.639Z,37.23
2022-12-13T02:16:38.021Z,27.40
2022-12-13T02:19:26.309Z,23.00
2022-12-13T02:22:25.337Z,26.30
2022-12-13T02:25:04.209Z,27.17
2022-12-13T02:27:42.536Z,26.57
2022-12-13T02:30:20.778Z,26.30
2022-12-13T02:33:06.214Z,36.07
2022-12-13T02:35:39.967Z,30.57
2022-12-13T02:38:24.320Z,28.20
2022-12-13T02:41:04.769Z,27.07
2022-12-13T02:43:34.684Z,29.27
2022-12-13T02:46:01.969Z,37.33
2022-12-13T02:48:36.904Z,34.83
2022-12-13T02:51:04.926Z,36.73
2022-12-13T02:53:33.687Z,35.27
2022-12-13T02:56:00.533Z,28.70
2022-12-13T02:58:32.103Z,36.30
2022-12-13T03:01:04.804Z,35.13
2022-12-13T03:04:01.178Z,35.43
2022-12-13T03:06:33.295Z,36.83
2022-12-13T03:09:08.522Z,36.03
2022-12-13T03:12:04.860Z,28.43
2022-12-13T03:14:33.429Z,26.77
2022-12-13T03:17:00.847Z,37.80
2022-12-13T03:19:27.344Z,35.43
2022-12-13T03:21:53.845Z,35.13
2022-12-13T03:24:21.026Z,36.37
2022-12-13T03:26:48.546Z,35.63
2022-12-13T03:29:23.869Z,28.23
2022-12-13T03:31:51.642Z,37.17
2022-12-13T03:34:22.916Z,37.07
2022-12-13T03:36:51.371Z,35.80
2022-12-13T03:39:17.873Z,29.93
2022-12-13T03:41:44.440Z,35.77
2022-12-13T03:44:10.915Z,35.80
2022-12-13T03:46:37.616Z,35.70
2022-12-13T03:49:04.118Z,36.90
2022-12-13T03:51:30.544Z,27.93
2022-12-13T03:53:57.039Z,24.73
2022-12-13T03:56:23.564Z,35.73
2022-12-13T03:58:49.974Z,36.43
2022-12-13T04:01:16.598Z,37.20
2022-12-13T04:03:45.483Z,37.10
2022-12-13T04:06:12.449Z,35.17
2022-12-13T04:08:39.548Z,34.97
2022-12-13T04:11:25.103Z,29.87
2022-12-13T04:13:52.626Z,38.53
2022-12-13T04:16:19.226Z,36.63
2022-12-13T04:18:45.688Z,37.07
2022-12-13T04:21:12.115Z,36.97
2022-12-13T04:23:38.585Z,26.40
2022-12-13T04:26:05.110Z,37.23
2022-12-13T04:28:31.493Z,35.50
2022-12-13T04:30:57.921Z,24.13
2022-12-13T04:33:24.689Z,36.47
2022-12-13T04:35:51.797Z,24.33
2022-12-13T04:38:21.003Z,25.17
2022-12-13T04:40:47.667Z,22.60
2022-12-13T04:43:14.112Z,23.73
2022-12-13T04:45:40.732Z,25.63
2022-12-13T04:48:07.573Z,25.37
2022-12-13T04:50:33.967Z,23.30
2022-12-13T04:53:00.450Z,23.33
2022-12-13T04:55:26.915Z,23.83
2022-12-13T04:57:53.437Z,29.00
2022-12-13T05:00:22.046Z,27.63
2022-12-13T05:02:48.576Z,24.97
2022-12-13T05:05:15.439Z,24.53
2022-12-13T05:07:43.025Z,31.27
2022-12-13T05:10:10.488Z,33.67
2022-12-13T05:12:37.155Z,31.77
2022-12-13T05:15:03.909Z,28.93
2022-12-13T05:17:30.468Z,30.67
2022-12-13T05:19:56.893Z,38.53
2022-12-13T05:22:23.295Z,32.80
2022-12-13T05:24:49.790Z,31.73
2022-12-13T05:27:25.755Z,28.07
2022-12-13T05:30:04.281Z,30.27
2022-12-13T05:32:43.692Z,41.20
2022-12-13T05:35:22.386Z,33.87
2022-12-13T05:37:54.200Z,32.27
2022-12-13T05:40:22.331Z,39.87
2022-12-13T05:42:48.781Z,40.13
2022-12-13T05:45:16.233Z,42.33
2022-12-13T05:47:43.076Z,36.63
2022-12-13T05:50:09.585Z,41.30
2022-12-13T05:52:36.133Z,42.53
2022-12-13T05:55:03.083Z,41.37
2022-12-13T05:57:29.625Z,42.67
2022-12-13T05:59:56.239Z,42.10
2022-12-13T06:02:22.844Z,39.27
2022-12-13T06:04:49.539Z,39.83
2022-12-13T06:07:15.948Z,40.53
2022-12-13T06:09:42.727Z,38.97
2022-12-13T06:12:31.031Z,38.93
2022-12-13T06:15:01.415Z,37.30
2022-12-13T06:17:35.072Z,33.40
2022-12-13T06:20:01.754Z,29.80
2022-12-13T06:22:28.171Z,37.50
2022-12-13T06:24:55.008Z,36.87
2022-12-13T06:27:21.814Z,30.47
2022-12-13T06:29:48.526Z,28.70
2022-12-13T06:32:14.984Z,30.20
2022-12-13T06:34:41.563Z,37.43
2022-12-13T06:37:08.968Z,38.47
2022-12-13T06:39:35.775Z,30.03
2022-12-13T06:42:02.864Z,34.73
2022-12-13T06:44:30.287Z,35.73
2022-12-13T06:47:10.822Z,29.70
2022-12-13T06:49:39.592Z,29.80
2022-12-13T06:52:09.919Z,40.33
2022-12-13T06:54:36.609Z,37.60
2022-12-13T06:57:03.040Z,39.83
2022-12-13T06:59:29.532Z,39.97
2022-12-13T07:01:56.089Z,34.37
2022-12-13T07:04:31.239Z,31.50
2022-12-13T07:07:01.655Z,32.67
2022-12-13T07:09:31.893Z,41.10
2022-12-13T07:11:58.641Z,42.33
2022-12-13T07:14:25.275Z,32.73
2022-12-13T07:16:51.963Z,30.07
2022-12-13T07:19:22.806Z,41.40
2022-12-13T07:21:51.003Z,34.33
2022-12-13T07:24:17.450Z,33.37
2022-12-13T07:26:44.033Z,34.90
2022-12-13T07:29:10.634Z,32.80
2022-12-13T07:31:37.991Z,31.53
2022-12-13T07:34:04.464Z,28.23
2022-12-13T07:36:33.609Z,29.40
2022-12-13T07:39:03.117Z,28.63
2022-12-13T07:41:29.826Z,29.20
2022-12-13T07:43:56.344Z,27.40
2022-12-13T07:46:33.263Z,27.73
2022-12-13T07:49:04.452Z,26.40
2022-12-13T07:51:36.404Z,25.73
2022-12-13T07:54:08.457Z,25.53
2022-12-13T07:56:36.111Z,25.60
2022-12-13T07:59:02.865Z,28.07
2022-12-13T08:01:31.475Z,30.67
2022-12-13T08:03:57.936Z,28.73
2022-12-13T08:06:24.410Z,38.00
2022-12-13T08:08:54.812Z,25.93
2022-12-13T08:11:21.358Z,27.37
2022-12-13T08:13:47.782Z,35.93
2022-12-13T08:16:26.103Z,35.07
2022-12-13T08:19:03.003Z,32.13
2022-12-13T08:21:54.032Z,29.10
2022-12-13T08:24:27.983Z,27.53
2022-12-13T08:27:01.422Z,26.47
2022-12-13T08:29:34.040Z,33.10
2022-12-13T08:32:02.766Z,27.50
2022-12-13T08:34:29.503Z,26.80
2022-12-13T08:37:02.065Z,26.57
2022-12-13T08:39:30.276Z,25.97
2022-12-13T08:42:01.070Z,24.53
2022-12-13T08:44:44.199Z,24.47
2022-12-13T08:47:10.866Z,23.20
2022-12-13T08:49:37.313Z,30.33
2022-12-13T08:52:03.821Z,24.43
2022-12-13T08:54:32.862Z,24.63
2022-12-13T08:56:59.423Z,23.10
2022-12-13T08:59:27.606Z,23.57
2022-12-13T09:01:56.635Z,23.93
2022-12-13T09:04:31.457Z,23.07
2022-12-13T09:07:01.325Z,24.80
2022-12-13T09:09:28.930Z,24.53
2022-12-13T09:11:59.456Z,24.20
2022-12-13T09:14:34.007Z,27.40
2022-12-13T09:17:02.858Z,28.67
2022-12-13T09:19:36.776Z,25.80
2022-12-13T09:22:03.742Z,24.67
2022-12-13T09:24:36.146Z,23.17
2022-12-13T09:27:03.325Z,24.47
2022-12-13T09:29:36.455Z,23.97
2022-12-13T09:32:03.137Z,23.50
2022-12-13T09:34:29.729Z,26.07
2022-12-13T09:37:01.727Z,24.13
2022-12-13T09:39:29.681Z,25.77
2022-12-13T09:42:00.585Z,27.60
2022-12-13T09:44:43.926Z,27.40
2022-12-13T09:47:15.649Z,23.80
2022-12-13T09:49:52.584Z,26.50
2022-12-13T09:52:22.438Z,29.30
2022-12-13T09:54:50.988Z,27.83
2022-12-13T09:57:31.476Z,26.53
2022-12-13T10:00:08.096Z,26.73
2022-12-13T10:02:45.246Z,23.43
2022-12-13T10:05:21.845Z,23.80
2022-12-13T10:07:51.321Z,25.10
2022-12-13T10:10:18.034Z,30.30
2022-12-13T10:12:45.815Z,24.43
2022-12-13T10:15:13.875Z,25.43
2022-12-13T10:17:55.145Z,24.07
2022-12-13T10:20:26.007Z,23.97
2022-12-13T10:23:30.154Z,25.17
2022-12-13T10:25:45.235Z,27.17
2022-12-13T10:28:12.013Z,27.00
2022-12-13T10:30:43.120Z,25.70
2022-12-13T10:33:24.374Z,24.57
2022-12-13T10:36:03.768Z,26.47
2022-12-13T10:38:31.604Z,25.23
2022-12-13T10:40:58.920Z,26.80
2022-12-13T10:43:28.292Z,24.80
2022-12-13T10:45:58.469Z,24.10
2022-12-13T10:48:38.164Z,23.23
2022-12-13T10:51:06.588Z,26.73
2022-12-13T10:53:35.243Z,25.67
2022-12-13T10:56:02.665Z,23.13
2022-12-13T10:58:36.561Z,26.20
2022-12-13T11:01:24.003Z,25.63
2022-12-13T11:04:04.832Z,24.90
2022-12-13T11:06:45.154Z,26.80
2022-12-13T11:09:25.423Z,25.43
2022-12-13T11:11:58.515Z,25.73
2022-12-13T11:14:31.796Z,22.60
2022-12-13T11:17:07.150Z,22.20
2022-12-13T11:19:51.550Z,23.53
2022-12-13T11:22:22.528Z,22.97
2022-12-13T11:24:51.980Z,23.33
2022-12-13T11:27:18.371Z,24.30
2022-12-13T11:29:54.667Z,21.30
2022-12-13T11:32:29.614Z,24.57
2022-12-13T11:35:09.244Z,22.40
2022-12-13T11:37:45.470Z,22.97
2022-12-13T11:40:14.537Z,20.00
2022-12-13T11:42:47.398Z,20.10
2022-12-13T11:45:23.113Z,19.03
2022-12-13T11:47:58.486Z,17.10
2022-12-13T11:50:34.180Z,18.57
2022-12-13T11:53:19.251Z,17.30
2022-12-13T11:55:52.455Z,18.73
2022-12-13T11:59:00.657Z,18.47
2022-12-13T12:01:23.229Z,16.67
2022-12-13T12:03:54.406Z,16.10
2022-12-13T12:06:22.601Z,16.90
2022-12-13T12:08:52.214Z,17.57
2022-12-13T12:11:33.920Z,18.80
2022-12-13T12:14:04.527Z,18.63
2022-12-13T12:16:38.153Z,18.23
2022-12-13T12:19:09.627Z,16.33
2022-12-13T12:22:13.691Z,17.23
2022-12-13T12:25:05.595Z,17.13
2022-12-13T12:27:40.931Z,15.83
2022-12-13T12:30:10.534Z,17.40
2022-12-13T12:32:57.286Z,16.47
2022-12-13T12:35:29.936Z,16.67
2022-12-13T12:38:12.406Z,16.60
2022-12-13T12:41:15.790Z,16.10
2022-12-13T12:43:42.917Z,17.27
2022-12-13T12:46:15.886Z,16.37
2022-12-13T12:48:56.976Z,15.37
2022-12-13T12:51:32.521Z,15.37
2022-12-13T12:54:05.956Z,14.63
2022-12-13T12:56:47.013Z,14.67
2022-12-13T12:59:30.989Z,14.43
2022-12-13T13:02:04.482Z,13.73
2022-12-13T13:04:39.156Z,12.60
2022-12-13T13:07:22.997Z,14.13
2022-12-13T13:09:50.522Z,13.43
2022-12-13T13:12:28.814Z,15.13
2022-12-13T13:14:57.053Z,14.03
2022-12-13T13:17:23.440Z,14.23
2022-12-13T13:20:12.283Z,13.70
2022-12-13T13:22:44.463Z,13.57
2022-12-13T13:25:30.325Z,12.67
2022-12-13T13:28:06.268Z,13.30
2022-12-13T13:30:33.047Z,13.03
2022-12-13T13:32:59.489Z,13.27
2022-12-13T13:35:48.120Z,12.67
2022-12-13T13:38:23.972Z,13.47
2022-12-13T13:40:50.977Z,12.77
2022-12-13T13:43:32.220Z,13.70
2022-12-13T13:46:02.863Z,13.87
2022-12-13T13:48:47.866Z,13.27
2022-12-13T13:51:14.361Z,14.13
2022-12-13T13:53:59.552Z,13.57
2022-12-13T13:56:29.415Z,13.80
2022-12-13T13:59:17.480Z,13.03
2022-12-13T14:01:50.236Z,12.30
2022-12-13T14:04:31.616Z,13.30
2022-12-13T14:07:00.960Z,13.43
2022-12-13T14:09:46.605Z,13.50
2022-12-13T14:12:29.860Z,13.87
2022-12-13T14:15:15.856Z,13.00
2022-12-13T14:18:10.588Z,13.97
2022-12-13T14:20:37.031Z,14.40
2022-12-13T14:23:09.336Z,13.97
2022-12-13T14:25:51.991Z,14.87
2022-12-13T14:28:38.082Z,14.23
2022-12-13T14:31:26.024Z,14.17
2022-12-13T14:33:53.773Z,14.70
2022-12-13T14:36:29.659Z,13.87
2022-12-13T14:39:05.188Z,14.03
2022-12-13T14:41:33.295Z,14.90
2022-12-13T14:44:33.784Z,13.50
2022-12-13T14:47:01.117Z,14.33
2022-12-13T14:49:28.837Z,14.83
2022-12-13T14:52:01.608Z,12.93
2022-12-13T14:54:30.247Z,13.37
2022-12-13T14:57:01.506Z,13.47
2022-12-13T14:59:29.620Z,13.90
2022-12-13T15:01:59.339Z,13.80
2022-12-13T15:04:28.042Z,14.20
2022-12-13T15:07:15.219Z,14.07
2022-12-13T15:09:47.864Z,14.93
2022-12-13T15:12:25.263Z,15.10
2022-12-13T15:15:00.531Z,15.20
2022-12-13T15:17:29.130Z,15.50
2022-12-13T15:20:02.271Z,14.83
2022-12-13T15:22:34.989Z,14.63
2022-12-13T15:25:13.427Z,14.70
2022-12-13T15:27:48.505Z,14.63
2022-12-13T15:30:15.427Z,14.17
2022-12-13T15:33:00.791Z,15.10
2022-12-13T15:35:27.418Z,13.90
2022-12-13T15:37:53.882Z,14.80
2022-12-13T15:40:20.542Z,13.97
2022-12-13T15:42:48.475Z,13.87
2022-12-13T15:45:22.615Z,14.57
2022-12-13T15:47:49.506Z,15.50
2022-12-13T15:50:35.844Z,14.87
2022-12-13T15:53:04.300Z,15.03
2022-12-13T15:55:33.744Z,15.70
2022-12-13T15:58:00.257Z,14.73
2022-12-13T16:00:30.715Z,14.00
2022-12-13T16:03:08.895Z,15.37
2022-12-13T16:05:37.756Z,15.00
2022-12-13T16:08:13.892Z,14.17
2022-12-13T16:10:45.592Z,15.23
2022-12-13T16:13:26.366Z,15.57
2022-12-13T16:15:59.836Z,14.40
2022-12-13T16:18:42.833Z,16.10
2022-12-13T16:21:10.111Z,16.83
2022-12-13T16:23:36.545Z,16.10
2022-12-13T16:26:08.503Z,14.70
2022-12-13T16:28:35.526Z,15.50
2022-12-13T16:31:11.301Z,15.10
2022-12-13T16:33:37.821Z,14.73
2022-12-13T16:36:04.366Z,13.63
2022-12-13T16:38:30.825Z,14.27
2022-12-13T16:40:59.666Z,15.83
2022-12-13T16:43:33.403Z,14.23
2022-12-13T16:47:17.880Z,14.73
2022-12-13T16:48:50.280Z,14.73
2022-12-13T16:51:16.805Z,15.10
2022-12-13T16:53:43.795Z,13.77
2022-12-13T16:56:11.454Z,13.77
2022-12-13T16:58:38.140Z,14.80
2022-12-13T17:01:11.691Z,14.60
2022-12-13T17:03:38.448Z,14.57
2022-12-13T17:06:05.450Z,14.47
2022-12-13T17:08:33.300Z,14.27
2022-12-13T17:10:59.740Z,13.77
2022-12-13T17:13:28.044Z,14.57
2022-12-13T17:15:59.505Z,14.20
2022-12-13T17:18:26.796Z,14.03
2022-12-13T17:20:58.455Z,14.37
2022-12-13T17:23:27.233Z,13.90
2022-12-13T17:25:57.987Z,15.30
2022-12-13T17:28:24.887Z,13.83
2022-12-13T17:30:54.703Z,14.27
2022-12-13T17:33:21.873Z,14.70
2022-12-13T17:35:48.672Z,13.47
2022-12-13T17:38:15.219Z,13.30
2022-12-13T17:40:41.699Z,15.60
2022-12-13T17:43:10.358Z,13.60
2022-12-13T17:45:42.739Z,12.67
2022-12-13T17:48:09.201Z,12.23
2022-12-13T17:50:37.759Z,12.50
2022-12-13T17:53:04.461Z,12.47
2022-12-13T17:55:31.759Z,12.87
2022-12-13T17:58:04.113Z,12.57
2022-12-13T18:00:30.980Z,12.90
2022-12-13T18:02:57.459Z,12.63
2022-12-13T18:05:26.129Z,13.07
2022-12-13T18:07:52.575Z,11.83
2022-12-13T18:10:19.266Z,11.93
2022-12-13T18:12:45.635Z,12.10
2022-12-13T18:15:12.063Z,12.00
2022-12-13T18:18:09.615Z,12.77
2022-12-13T18:20:25.104Z,11.47
2022-12-13T18:22:51.764Z,12.77
2022-12-13T18:25:18.169Z,11.60
2022-12-13T18:27:44.614Z,11.73
2022-12-13T18:30:11.306Z,12.67
2022-12-13T18:32:39.824Z,11.73
2022-12-13T18:35:06.519Z,11.17
2022-12-13T18:37:32.924Z,12.13
2022-12-13T18:39:59.462Z,12.37
2022-12-13T18:42:25.979Z,12.13
2022-12-13T18:44:54.943Z,13.03
2022-12-13T18:47:21.573Z,11.40
2022-12-13T18:49:54.603Z,11.73
2022-12-13T18:52:23.573Z,12.20
2022-12-13T18:54:54.353Z,11.30
2022-12-13T18:57:24.315Z,10.73
2022-12-13T18:59:54.744Z,11.87
2022-12-13T19:02:25.703Z,11.03
2022-12-13T19:04:55.534Z,10.87
2022-12-13T19:07:22.288Z,11.40
2022-12-13T19:09:54.708Z,10.70
2022-12-13T19:12:24.604Z,11.00
2022-12-13T19:14:54.707Z,12.00
2022-12-13T19:17:21.951Z,11.97
2022-12-13T19:19:48.612Z,12.23
2022-12-13T19:22:18.412Z,12.27
2022-12-13T19:24:45.254Z,12.17
2022-12-13T19:27:11.865Z,11.67
2022-12-13T19:29:38.338Z,11.20
2022-12-13T19:32:04.913Z,11.23
2022-12-13T19:34:31.370Z,12.07
2022-12-13T19:37:01.621Z,11.33
2022-12-13T19:39:35.582Z,9.90
2022-12-13T19:42:02.194Z,10.60
2022-12-13T19:44:31.271Z,11.90
2022-12-13T19:46:58.245Z,12.20
2022-12-13T19:49:24.844Z,11.70
2022-12-13T19:51:51.605Z,11.20
2022-12-13T19:54:18.123Z,9.97
2022-12-13T19:56:45.130Z,10.23
2022-12-13T19:59:14.330Z,10.17
2022-12-13T20:01:41.249Z,9.90
2022-12-13T20:04:07.730Z,10.70
2022-12-13T20:06:34.248Z,11.37
2022-12-13T20:09:00.774Z,9.90
2022-12-13T20:11:27.387Z,10.60
2022-12-13T20:13:54.648Z,10.63
2022-12-13T20:16:22.534Z,10.53
2022-12-13T20:18:53.264Z,11.63
2022-12-13T20:21:19.892Z,9.90
2022-12-13T20:23:49.175Z,9.70
2022-12-13T20:26:17.005Z,10.60
2022-12-13T20:28:43.458Z,10.90
2022-12-13T20:31:11.249Z,9.87
2022-12-13T20:33:38.719Z,10.50
2022-12-13T20:38:56.367Z,9.70
2022-12-13T20:41:23.676Z,9.83
2022-12-13T20:43:55.117Z,8.90
2022-12-13T20:46:23.712Z,10.13
2022-12-13T20:48:51.022Z,9.17
2022-12-13T20:51:19.184Z,9.07
2022-12-13T20:53:46.930Z,9.60
2022-12-13T20:56:15.046Z,9.43
2022-12-13T20:58:43.041Z,8.60
2022-12-13T21:01:13.466Z,9.07
2022-12-13T21:03:41.716Z,9.37
2022-12-13T21:06:10.367Z,9.07
2022-12-13T21:08:52.096Z,8.90
2022-12-13T21:11:29.211Z,8.77
2022-12-13T21:14:08.354Z,9.43
2022-12-13T21:16:42.011Z,8.83
2022-12-13T21:19:09.640Z,8.47
2022-12-13T21:21:36.611Z,9.57
2022-12-13T21:24:06.023Z,9.27
2022-12-13T21:26:35.761Z,9.13
2022-12-13T21:29:04.374Z,9.10
2022-12-13T21:31:30.992Z,9.83
2022-12-13T21:33:59.309Z,9.33
2022-12-13T21:36:34.278Z,9.93
2022-12-13T21:39:02.018Z,9.77
2022-12-13T21:41:30.617Z,9.80
2022-12-13T21:43:57.101Z,9.37
2022-12-13T21:46:31.334Z,9.30
2022-12-13T21:49:12.180Z,9.70
2022-12-13T21:51:43.252Z,9.00
2022-12-13T21:54:12.670Z,9.50
2022-12-13T21:57:05.379Z,8.80
2022-12-13T21:59:32.021Z,9.33
2022-12-13T22:02:11.883Z,9.00
2022-12-13T22:04:44.402Z,9.33
2022-12-13T22:07:22.928Z,7.37
2022-12-13T22:09:52.411Z,8.10
2022-12-13T22:12:22.563Z,7.93
2022-12-13T22:14:49.860Z,8.60
2022-12-13T22:17:17.723Z,8.40
2022-12-13T22:19:48.379Z,8.23
2022-12-13T22:22:16.057Z,7.90
2022-12-13T22:24:42.836Z,8.07
2022-12-13T22:27:09.511Z,7.70
2022-12-13T22:29:36.889Z,8.07
2022-12-13T22:32:04.810Z,8.00
2022-12-13T22:34:32.240Z,7.53
2022-12-13T22:36:59.313Z,8.10
2022-12-13T22:39:25.942Z,8.00
2022-12-13T22:41:52.499Z,8.13
2022-12-13T22:44:23.620Z,8.00
2022-12-13T22:46:50.149Z,8.30
2022-12-13T22:49:20.012Z,8.97
2022-12-13T22:51:48.370Z,8.47
2022-12-13T22:54:15.562Z,8.40
2022-12-13T22:56:42.182Z,8.33
2022-12-13T22:59:09.958Z,7.87
2022-12-13T23:01:40.746Z,8.07
2022-12-13T23:04:08.011Z,8.07
2022-12-13T23:06:35.930Z,7.30
2022-12-13T23:09:05.269Z,6.73
2022-12-13T23:11:52.533Z,6.83
2022-12-13T23:14:22.223Z,7.13
2022-12-13T23:16:49.548Z,6.20
2022-12-13T23:22:11.396Z,7.07
2022-12-13T23:24:37.932Z,7.00
2022-12-13T23:27:04.478Z,7.17
2022-12-13T23:29:31.598Z,6.70
2022-12-13T23:31:58.126Z,6.67
2022-12-13T23:34:24.827Z,7.07
2022-12-13T23:36:51.365Z,7.20
2022-12-13T23:39:18.030Z,6.63
2022-12-13T23:41:44.542Z,7.53
2022-12-13T23:44:18.655Z,6.80
2022-12-13T23:46:51.219Z,6.27
2022-12-13T23:49:19.381Z,6.57
2022-12-13T23:51:48.478Z,6.53
2022-12-13T23:54:19.204Z,6.80
2022-12-13T23:56:48.050Z,6.23
2022-12-13T23:59:16.910Z,6.67
